Time;durP1;ratioP1;P1;durP2;ratioP2;P2;SDS_P1;SDS_P2;PMS_P1;PMS_P2;Temp;Humidity;BMP_temperature;BMP_pressure;BME280_temperature;BME280_humidity;BME280_pressure;Samples;Min_cycle;Max_cycle;Signal;HPM_P1;HPM_P2
2022/06/18 00:00:47;;;;;;;8.18;3.35;;;;;;;19.88;100.00;101839.00;5203818;28;20056;-70
2022/06/18 00:03:19;;;;;;;5.22;3.50;;;;;;;19.84;100.00;101835.03;5219561;28;20024;-70
2022/06/18 00:05:54;;;;;;;6.07;3.67;;;;;;;19.81;100.00;101833.53;5223053;28;20025;-70
2022/06/18 00:08:28;;;;;;;5.95;3.67;;;;;;;19.78;100.00;101830.38;5210220;28;20020;-70
2022/06/18 00:13:50;;;;;;;8.32;3.75;;;;;;;19.69;100.00;101829.72;5203687;28;20025;-71
2022/06/18 00:16:21;;;;;;;3.85;3.00;;;;;;;19.67;100.00;101834.53;5204173;28;20041;-71
2022/06/18 00:18:52;;;;;;;11.20;4.07;;;;;;;19.63;100.00;101825.94;5202130;28;20021;-71
2022/06/18 00:21:25;;;;;;;7.70;4.05;;;;;;;19.58;100.00;101833.84;5210723;28;20040;-70
2022/06/18 00:23:56;;;;;;;4.10;3.60;;;;;;;19.55;100.00;101836.13;5216563;28;20105;-71
2022/06/18 00:26:27;;;;;;;5.53;3.45;;;;;;;19.55;100.00;101828.78;5225117;28;20036;-71
2022/06/18 00:28:57;;;;;;;7.85;3.42;;;;;;;19.58;100.00;101833.00;5228007;28;20021;-71
2022/06/18 00:31:28;;;;;;;6.82;3.75;;;;;;;19.62;100.00;101831.56;5220560;28;20033;-70
2022/06/18 00:33:58;;;;;;;4.55;3.40;;;;;;;19.62;100.00;101837.00;5220757;28;20013;-70
2022/06/18 00:36:29;;;;;;;6.15;3.70;;;;;;;19.59;100.00;101831.97;5215825;28;20044;-70
2022/06/18 00:39:00;;;;;;;4.60;3.88;;;;;;;19.52;100.00;101829.19;5212338;28;20071;-70
2022/06/18 00:41:32;;;;;;;9.00;4.00;;;;;;;19.49;100.00;101826.88;5217169;28;20031;-70
2022/06/18 00:44:11;;;;;;;6.07;3.55;;;;;;;19.48;100.00;101827.06;5223474;28;20056;-71
2022/06/18 00:46:49;;;;;;;7.00;3.92;;;;;;;19.39;100.00;101823.69;5219980;28;20286;-71
2022/06/18 00:49:38;;;;;;;8.07;4.38;;;;;;;19.32;100.00;101818.19;5207462;28;20029;-71
2022/06/18 00:52:29;;;;;;;7.20;4.20;;;;;;;19.28;100.00;101816.09;5222513;28;20060;-71
2022/06/18 00:55:09;;;;;;;7.20;4.50;;;;;;;19.22;100.00;101808.72;5225892;28;20017;-71
2022/06/18 00:57:45;;;;;;;5.18;3.70;;;;;;;19.15;100.00;101803.25;5207153;28;20029;-70
2022/06/18 01:00:37;;;;;;;8.30;4.25;;;;;;;19.10;100.00;101805.72;5220813;28;20017;-71
2022/06/18 01:03:21;;;;;;;7.47;4.13;;;;;;;19.05;100.00;101809.03;5207171;28;20029;-71
2022/06/18 01:05:54;;;;;;;6.38;4.00;;;;;;;19.01;100.00;101807.75;5217490;28;20037;-71
2022/06/18 01:08:30;;;;;;;9.25;4.30;;;;;;;18.97;100.00;101797.47;5227807;28;20087;-71
2022/06/18 01:11:06;;;;;;;9.27;3.75;;;;;;;18.90;100.00;101805.56;5227322;28;20028;-71
2022/06/18 01:13:39;;;;;;;8.27;4.10;;;;;;;18.89;100.00;101793.88;5207485;28;20064;-71
2022/06/18 01:16:11;;;;;;;8.85;3.85;;;;;;;19.01;100.00;101785.16;5219023;28;20017;-71
2022/06/18 01:18:43;;;;;;;9.43;4.28;;;;;;;19.18;100.00;101793.81;5215353;28;20078;-70
2022/06/18 01:21:51;;;;;;;5.65;4.03;;;;;;;19.23;100.00;101786.78;5213461;28;20368;-71
2022/06/18 01:24:30;;;;;;;8.93;4.18;;;;;;;19.29;100.00;101780.53;5213526;28;20036;-71
2022/06/18 01:27:01;;;;;;;6.15;3.70;;;;;;;19.35;100.00;101782.44;5216557;28;20025;-70
2022/06/18 01:29:31;;;;;;;10.55;4.22;;;;;;;19.48;100.00;101775.34;5219802;28;20087;-70
2022/06/18 01:32:03;;;;;;;9.77;4.13;;;;;;;19.56;100.00;101780.63;5205361;28;20295;-70
2022/06/18 01:34:35;;;;;;;9.02;4.32;;;;;;;19.63;100.00;101770.66;5220289;28;20352;-71
2022/06/18 01:37:06;;;;;;;11.45;3.85;;;;;;;19.72;100.00;101777.59;5206538;28;20045;-71
2022/06/18 01:39:42;;;;;;;6.60;3.85;;;;;;;19.79;100.00;101777.63;5208377;28;20386;-71
2022/06/18 01:42:21;;;;;;;8.77;4.70;;;;;;;19.86;100.00;101773.88;5218815;28;20031;-71
2022/06/18 01:44:58;;;;;;;11.20;4.07;;;;;;;19.94;100.00;101769.28;5217347;28;20021;-71
2022/06/18 01:47:38;;;;;;;7.70;3.50;;;;;;;19.99;100.00;101772.22;5219646;28;20108;-71
2022/06/18 01:50:17;;;;;;;5.50;3.78;;;;;;;20.00;100.00;101765.72;5225537;28;20064;-72
2022/06/18 01:52:55;;;;;;;9.88;3.92;;;;;;;19.95;100.00;101760.91;5204892;28;20025;-71
2022/06/18 01:55:32;;;;;;;6.93;4.22;;;;;;;19.78;100.00;101765.91;5206025;28;20025;-70
2022/06/18 01:58:09;;;;;;;7.95;3.88;;;;;;;19.69;100.00;101767.13;5219155;28;20070;-71
2022/06/18 02:00:42;;;;;;;8.65;4.30;;;;;;;19.60;100.00;101773.78;5206191;28;20433;-70
2022/06/18 02:03:13;;;;;;;8.57;4.80;;;;;;;19.46;100.00;101775.56;5206294;28;20040;-70
2022/06/18 02:05:44;;;;;;;8.57;4.25;;;;;;;19.39;100.00;101778.28;5205677;28;20100;-71
2022/06/18 02:08:18;;;;;;;4.80;4.00;;;;;;;19.30;100.00;101774.03;5222892;28;20101;-70
2022/06/18 02:10:57;;;;;;;8.10;4.18;;;;;;;19.15;100.00;101786.91;5215208;28;20465;-70
2022/06/18 02:13:34;;;;;;;7.20;4.25;;;;;;;19.04;100.00;101785.59;5211444;28;20025;-70
2022/06/18 02:16:10;;;;;;;7.20;4.07;;;;;;;18.97;100.00;101783.88;5212615;28;20037;-70
2022/06/18 02:18:43;;;;;;;6.40;4.68;;;;;;;18.93;100.00;101771.72;5226439;28;20028;-70
2022/06/18 02:21:16;;;;;;;7.13;4.20;;;;;;;18.84;100.00;101777.31;5223394;28;20371;-70
2022/06/18 02:23:46;;;;;;;4.53;3.95;;;;;;;18.76;100.00;101776.59;5205286;28;20025;-70
2022/06/18 02:26:19;;;;;;;6.88;4.40;;;;;;;18.70;100.00;101772.81;5222925;28;20021;-70
2022/06/18 02:28:51;;;;;;;8.00;4.75;;;;;;;18.64;100.00;101770.84;5214637;28;20300;-70
2022/06/18 02:31:27;;;;;;;8.70;4.97;;;;;;;18.58;100.00;101774.38;5224899;28;20025;-71
2022/06/18 02:34:03;;;;;;;7.00;4.10;;;;;;;18.52;100.00;101775.13;5225592;28;20021;-71
2022/06/18 02:36:37;;;;;;;7.18;4.28;;;;;;;18.49;100.00;101770.94;5205155;28;20056;-71
2022/06/18 02:39:07;;;;;;;7.15;4.13;;;;;;;18.47;100.00;101769.44;5218660;28;20025;-71
2022/06/18 02:41:40;;;;;;;12.93;5.55;;;;;;;18.38;100.00;101768.75;5216185;28;20486;-71
2022/06/18 02:44:13;;;;;;;7.03;5.05;;;;;;;18.26;100.00;101779.28;5206183;28;20026;-71
2022/06/18 02:46:43;;;;;;;9.30;4.80;;;;;;;18.17;100.00;101766.88;5218059;28;20025;-71
2022/06/18 02:49:15;;;;;;;9.02;5.50;;;;;;;18.13;100.00;101762.03;5218652;28;20019;-71
2022/06/18 02:51:46;;;;;;;8.60;5.15;;;;;;;18.10;100.00;101764.09;5218240;28;20029;-70
2022/06/18 02:54:18;;;;;;;12.05;5.68;;;;;;;18.05;100.00;101757.56;5213644;28;20025;-70
2022/06/18 02:56:49;;;;;;;9.25;5.38;;;;;;;18.00;100.00;101768.16;5222662;28;20025;-70
2022/06/18 02:59:20;;;;;;;8.98;5.25;;;;;;;17.99;100.00;101767.31;5203520;28;20021;-71
2022/06/18 03:01:50;;;;;;;8.50;5.03;;;;;;;17.97;100.00;101769.41;5217922;28;20033;-70
2022/06/18 03:04:21;;;;;;;9.15;4.10;;;;;;;17.98;100.00;101776.50;5216217;28;20133;-71
2022/06/18 03:06:51;;;;;;;6.90;5.22;;;;;;;17.94;100.00;101775.22;5206570;28;20033;-70
2022/06/18 03:09:22;;;;;;;9.32;6.05;;;;;;;17.86;100.00;101776.16;5217752;28;20051;-70
2022/06/18 03:14:41;;;;;;;9.48;5.40;;;;;;;17.74;100.00;101772.28;5221092;28;20032;-70
2022/06/18 03:17:12;;;;;;;8.85;5.43;;;;;;;17.70;100.00;101767.38;5214993;28;20025;-70
2022/06/18 03:19:52;;;;;;;7.95;5.53;;;;;;;17.67;100.00;101762.31;5209026;28;20031;-69
2022/06/18 03:22:23;;;;;;;13.80;5.68;;;;;;;17.63;100.00;101767.31;5225351;28;20090;-70
2022/06/18 03:24:53;;;;;;;11.93;5.63;;;;;;;17.57;100.00;101763.50;5217766;28;20033;-70
2022/06/18 03:27:24;;;;;;;10.35;5.30;;;;;;;17.54;100.00;101766.56;5204480;28;20024;-70
2022/06/18 03:29:54;;;;;;;16.08;6.00;;;;;;;17.53;100.00;101769.47;5204338;28;20033;-71
2022/06/18 03:32:25;;;;;;;7.93;4.80;;;;;;;17.52;100.00;101765.94;5217310;28;20052;-71
2022/06/18 03:34:55;;;;;;;8.55;4.85;;;;;;;17.53;100.00;101766.78;5203971;28;20029;-70
2022/06/18 03:37:26;;;;;;;11.60;6.07;;;;;;;17.56;100.00;101767.22;5217531;28;20479;-70
2022/06/18 03:39:56;;;;;;;15.63;5.53;;;;;;;17.59;100.00;101777.69;5205337;28;20017;-70
2022/06/18 03:42:27;;;;;;;8.90;5.18;;;;;;;17.58;100.00;101778.72;5212929;28;20033;-70
2022/06/18 03:44:57;;;;;;;9.85;6.03;;;;;;;17.59;100.00;101779.56;5213004;28;20029;-70
2022/06/18 03:47:28;;;;;;;10.40;6.05;;;;;;;17.56;100.00;101775.34;5213053;28;20033;-70
2022/06/18 03:49:59;;;;;;;9.30;6.00;;;;;;;17.54;100.00;101773.88;5208839;28;20029;-70
2022/06/18 03:52:30;;;;;;;10.65;5.97;;;;;;;17.51;100.00;101776.94;5211927;28;20225;-70
2022/06/18 03:55:00;;;;;;;8.70;5.90;;;;;;;17.48;100.00;101771.94;5208641;28;20502;-70
2022/06/18 03:57:31;;;;;;;11.95;6.32;;;;;;;17.44;100.00;101771.47;5209121;28;20021;-70
2022/06/18 04:00:04;;;;;;;8.90;5.88;;;;;;;17.40;100.00;101777.44;5211000;28;20152;-70
2022/06/18 04:02:34;;;;;;;9.93;5.82;;;;;;;17.38;100.00;101774.94;5209002;28;20116;-70
2022/06/18 04:05:05;;;;;;;8.02;5.80;;;;;;;17.38;100.00;101780.34;5211291;28;20107;-70
2022/06/18 04:07:37;;;;;;;13.65;5.90;;;;;;;17.36;100.00;101779.69;5211837;28;20029;-70
2022/06/18 04:10:15;;;;;;;14.02;6.20;;;;;;;17.33;100.00;101782.78;5214323;28;20096;-70
2022/06/18 04:12:46;;;;;;;6.03;5.10;;;;;;;17.36;100.00;101782.41;5208575;28;20021;-70
2022/06/18 04:15:19;;;;;;;9.05;5.70;;;;;;;17.42;100.00;101789.81;5219432;28;20394;-70
2022/06/18 04:17:50;;;;;;;11.68;5.93;;;;;;;17.49;100.00;101774.44;5217230;28;20114;-70
2022/06/18 04:20:25;;;;;;;9.40;5.65;;;;;;;17.51;100.00;101771.53;5212466;28;20464;-70
2022/06/18 04:22:56;;;;;;;6.80;5.75;;;;;;;17.46;100.00;101769.38;5212550;28;20398;-70
2022/06/18 04:25:27;;;;;;;11.05;5.80;;;;;;;17.44;100.00;101778.75;5208038;28;20033;-70
2022/06/18 04:27:58;;;;;;;13.02;6.40;;;;;;;17.46;100.00;101776.69;5212838;28;20500;-70
2022/06/18 04:30:31;;;;;;;15.32;6.93;;;;;;;17.50;100.00;101773.41;5208544;28;20080;-70
2022/06/18 04:33:02;;;;;;;13.00;6.05;;;;;;;17.56;100.00;101777.22;5211002;28;20156;-70
2022/06/18 04:35:33;;;;;;;11.25;6.25;;;;;;;17.60;100.00;101773.09;5209947;28;20089;-70
2022/06/18 04:38:05;;;;;;;13.30;5.60;;;;;;;17.69;100.00;101776.56;5211671;28;20038;-70
2022/06/18 04:40:36;;;;;;;9.65;6.28;;;;;;;17.79;100.00;101780.69;5208873;28;22809;-70
2022/06/18 04:43:08;;;;;;;8.70;5.40;;;;;;;17.93;100.00;101783.56;5207203;28;20466;-70
2022/06/18 04:45:39;;;;;;;10.15;4.97;;;;;;;18.07;100.00;101779.91;5212451;28;20029;-71
2022/06/18 04:48:09;;;;;;;11.32;6.15;;;;;;;18.20;100.00;101785.50;5226813;28;20030;-69
2022/06/18 04:50:41;;;;;;;12.02;5.90;;;;;;;18.30;100.00;101783.31;5203592;28;20036;-69
2022/06/18 04:53:12;;;;;;;8.27;5.78;;;;;;;18.42;100.00;101771.91;5209923;28;20029;-69
2022/06/18 04:55:42;;;;;;;12.02;5.95;;;;;;;18.53;100.00;101777.66;5209105;28;20112;-69
2022/06/18 04:58:13;;;;;;;9.55;5.53;;;;;;;18.62;100.00;101771.06;5215985;28;20036;-69
2022/06/18 05:00:44;;;;;;;13.35;5.57;;;;;;;18.78;100.00;101772.66;5218602;28;20017;-69
2022/06/18 05:03:17;;;;;;;9.18;5.75;;;;;;;18.94;100.00;101768.81;5223117;28;20025;-69
2022/06/18 05:05:48;;;;;;;8.43;4.80;;;;;;;19.11;100.00;101766.59;5207184;28;20061;-69
2022/06/18 05:08:18;;;;;;;8.15;5.00;;;;;;;19.28;100.00;101762.53;5206976;28;20529;-69
2022/06/18 05:10:49;;;;;;;7.05;4.93;;;;;;;19.48;100.00;101756.31;5225275;28;20028;-69
2022/06/18 05:13:19;;;;;;;8.02;5.15;;;;;;;19.70;100.00;101768.78;5215385;28;20022;-69
2022/06/18 05:15:53;;;;;;;11.63;5.63;;;;;;;19.85;100.00;101757.75;5226513;28;20021;-69
2022/06/18 05:18:27;;;;;;;11.68;5.53;;;;;;;19.96;100.00;101767.19;5225930;28;20116;-70
2022/06/18 05:20:58;;;;;;;10.13;4.97;;;;;;;20.11;100.00;101770.56;5206531;28;20022;-69
2022/06/18 05:23:28;;;;;;;10.73;6.03;;;;;;;20.27;100.00;101769.34;5220259;28;20036;-69
2022/06/18 05:26:00;;;;;;;12.35;6.57;;;;;;;20.37;100.00;101761.59;5205584;28;20029;-69
2022/06/18 05:28:31;;;;;;;8.50;5.93;;;;;;;20.49;100.00;101761.84;5223727;28;20029;-69
2022/06/18 05:31:01;;;;;;;11.35;6.18;;;;;;;20.58;100.00;101758.69;5227127;28;20039;-69
2022/06/18 05:33:32;;;;;;;12.30;6.20;;;;;;;20.69;100.00;101762.69;5208319;28;20487;-69
2022/06/18 05:36:03;;;;;;;16.35;5.47;;;;;;;20.81;100.00;101766.44;5219198;28;20110;-69
2022/06/18 05:38:33;;;;;;;6.68;5.60;;;;;;;20.96;100.00;101763.47;5220145;28;20024;-69
2022/06/18 05:41:04;;;;;;;7.97;5.13;;;;;;;21.06;100.00;101757.56;5211305;28;20406;-70
2022/06/18 05:43:34;;;;;;;9.55;5.25;;;;;;;21.21;100.00;101749.97;5211906;28;20096;-70
2022/06/18 05:46:10;;;;;;;8.05;5.15;;;;;;;21.39;100.00;101754.78;5210281;28;20041;-70
2022/06/18 05:48:41;;;;;;;11.23;5.40;;;;;;;21.53;100.00;101747.34;5223284;28;20455;-70
2022/06/18 05:51:11;;;;;;;12.07;4.50;;;;;;;21.67;100.00;101749.81;5210592;28;20107;-70
2022/06/18 05:53:42;;;;;;;10.75;4.95;;;;;;;21.83;100.00;101753.91;5224469;28;20268;-70
2022/06/18 05:56:12;;;;;;;12.45;4.85;;;;;;;21.97;100.00;101746.47;5223356;28;20034;-70
2022/06/18 05:58:43;;;;;;;9.40;5.07;;;;;;;22.16;100.00;101751.00;5223030;28;20458;-70
2022/06/18 06:01:13;;;;;;;7.05;4.53;;;;;;;22.39;100.00;101746.84;5217217;28;20260;-70
2022/06/18 06:03:44;;;;;;;11.25;4.65;;;;;;;22.80;100.00;101751.75;5204012;28;20104;-70
2022/06/18 06:06:14;;;;;;;9.27;4.70;;;;;;;23.27;100.00;101749.34;5216244;28;20419;-70
2022/06/18 06:08:45;;;;;;;12.70;4.55;;;;;;;23.75;100.00;101754.06;5205397;28;20026;-70
2022/06/18 06:14:03;;;;;;;6.50;3.90;;;;;;;24.67;100.00;101753.69;5221314;28;20022;-70
2022/06/18 06:16:33;;;;;;;7.63;4.15;;;;;;;24.91;100.00;101760.00;5217864;28;20017;-70
2022/06/18 06:19:04;;;;;;;12.70;4.60;;;;;;;25.11;100.00;101757.75;5219096;28;20025;-70
2022/06/18 06:21:34;;;;;;;15.05;5.03;;;;;;;25.27;100.00;101757.00;5205347;28;20025;-70
2022/06/18 06:24:05;;;;;;;8.07;4.05;;;;;;;25.71;100.00;101751.03;5218780;28;20039;-70
2022/06/18 06:26:36;;;;;;;13.27;4.45;;;;;;;25.77;100.00;101763.81;5207038;28;20479;-70
2022/06/18 06:29:09;;;;;;;9.85;3.88;;;;;;;26.03;100.00;101751.38;5217052;28;20029;-70
2022/06/18 06:31:40;;;;;;;11.93;4.40;;;;;;;26.18;100.00;101756.31;5218355;28;20033;-70
2022/06/18 06:34:10;;;;;;;11.75;4.25;;;;;;;26.46;100.00;101756.28;5216345;28;20101;-71
2022/06/18 06:36:41;;;;;;;8.73;4.20;;;;;;;26.53;100.00;101762.44;5226115;28;20021;-70
2022/06/18 06:39:11;;;;;;;13.55;4.07;;;;;;;26.46;100.00;101749.94;5213982;28;20457;-70
2022/06/18 06:41:43;;;;;;;10.77;4.32;;;;;;;26.62;100.00;101751.84;5211343;28;20048;-70
2022/06/18 06:44:13;;;;;;;11.15;4.13;;;;;;;26.89;100.00;101757.47;5225131;28;20076;-70
2022/06/18 06:46:44;;;;;;;15.07;3.88;;;;;;;27.17;100.00;101755.69;5210778;28;20025;-70
2022/06/18 06:49:14;;;;;;;11.82;4.38;;;;;;;27.30;100.00;101752.53;5224071;28;20043;-70
2022/06/18 06:51:45;;;;;;;11.45;4.88;;;;;;;27.44;100.00;101753.81;5225616;28;20025;-69
2022/06/18 06:54:15;;;;;;;26.30;4.63;;;;;;;27.32;100.00;101756.72;5210847;28;20021;-70
2022/06/18 06:59:35;;;;;;;8.27;4.25;;;;;;;27.32;100.00;101756.72;5225548;28;20063;-69
2022/06/18 07:02:22;;;;;;;16.30;4.50;;;;;;;27.93;100.00;101762.13;5225223;28;20054;-70
2022/06/18 07:04:53;;;;;;;15.13;4.47;;;;;;;28.13;100.00;101755.97;5215001;28;20494;-70
2022/06/18 07:07:23;;;;;;;13.20;4.80;;;;;;;27.84;100.00;101758.16;5208059;28;20029;-70
2022/06/18 07:09:54;;;;;;;13.93;4.10;;;;;;;28.12;100.00;101752.38;5225157;28;20021;-70
2022/06/18 07:12:24;;;;;;;15.63;4.65;;;;;;;28.17;100.00;101751.59;5207132;28;20108;-70
2022/06/18 07:14:55;;;;;;;14.02;4.53;;;;;;;28.63;99.35;101758.34;5216272;28;20024;-70
2022/06/18 07:17:27;;;;;;;11.88;4.45;;;;;;;28.47;100.00;101759.34;5205214;28;20036;-70
2022/06/18 07:19:58;;;;;;;16.52;4.43;;;;;;;28.97;98.01;101763.56;5217695;28;20356;-70
2022/06/18 07:22:29;;;;;;;14.38;4.50;;;;;;;29.37;96.09;101762.09;5210837;28;20024;-70
2022/06/18 07:25:00;;;;;;;18.63;4.65;;;;;;;29.45;96.86;101753.28;5223059;28;20398;-70
2022/06/18 07:27:32;;;;;;;10.40;4.28;;;;;;;29.05;94.97;101754.75;5204724;28;20029;-70
2022/06/18 07:30:05;;;;;;;11.85;4.45;;;;;;;28.80;98.40;101752.66;5206193;28;20029;-71
2022/06/18 07:32:42;;;;;;;15.88;4.55;;;;;;;28.93;94.19;101751.34;5213098;28;20383;-71
2022/06/18 07:35:23;;;;;;;14.55;4.30;;;;;;;29.66;89.10;101756.97;5204054;28;20458;-71
2022/06/18 07:37:56;;;;;;;12.13;4.80;;;;;;;29.81;93.94;101753.41;5204143;28;20095;-70
2022/06/18 07:40:36;;;;;;;12.38;4.43;;;;;;;29.76;95.98;101748.69;5204161;28;20025;-71
2022/06/18 07:43:08;;;;;;;9.82;4.10;;;;;;;29.83;96.04;101746.50;5203717;28;20028;-71
2022/06/18 07:45:39;;;;;;;13.35;4.30;;;;;;;30.42;84.13;101739.63;5215418;28;20035;-70
2022/06/18 07:48:09;;;;;;;12.57;4.15;;;;;;;30.40;84.00;101733.56;5217183;28;20025;-71
2022/06/18 07:50:43;;;;;;;13.80;4.13;;;;;;;30.63;84.08;101740.47;5203829;28;20102;-70
2022/06/18 07:53:17;;;;;;;17.73;4.85;;;;;;;30.63;81.11;101730.22;5211191;28;20036;-71
2022/06/18 07:55:48;;;;;;;12.23;4.10;;;;;;;30.94;77.39;101724.63;5208691;28;20034;-71
2022/06/18 07:58:19;;;;;;;16.17;4.85;;;;;;;30.82;76.75;101727.69;5212742;28;20023;-71
2022/06/18 08:00:49;;;;;;;15.70;4.43;;;;;;;30.92;86.16;101724.06;5210674;28;20051;-71
2022/06/18 08:03:20;;;;;;;14.93;4.50;;;;;;;30.65;79.65;101716.09;5223941;28;20060;-71
2022/06/18 08:05:52;;;;;;;18.15;4.32;;;;;;;30.95;80.61;101721.56;5223612;28;20533;-71
2022/06/18 08:08:23;;;;;;;13.45;4.32;;;;;;;31.12;75.72;101712.06;5212912;28;20106;-71
2022/06/18 08:10:54;;;;;;;13.23;4.28;;;;;;;31.05;80.55;101711.56;5208816;28;20100;-71
2022/06/18 08:13:24;;;;;;;11.02;4.03;;;;;;;30.57;79.98;101706.38;5211511;28;20025;-70
2022/06/18 08:15:55;;;;;;;15.00;4.07;;;;;;;31.35;72.36;101713.41;5209560;28;20021;-71
2022/06/18 08:18:25;;;;;;;9.80;4.07;;;;;;;31.34;73.19;101698.72;5210528;28;20021;-70
2022/06/18 08:21:05;;;;;;;15.18;4.40;;;;;;;31.15;77.03;101705.97;5216450;28;20116;-71
2022/06/18 08:23:36;;;;;;;12.65;4.40;;;;;;;30.76;76.58;101692.81;5203502;28;20044;-71
2022/06/18 08:26:08;;;;;;;13.90;4.10;;;;;;;30.83;74.15;101695.31;5203113;28;20030;-71
2022/06/18 08:28:39;;;;;;;16.40;4.22;;;;;;;30.49;73.68;101698.66;5207301;28;20025;-71
2022/06/18 08:31:10;;;;;;;10.27;4.47;;;;;;;30.85;74.40;101690.31;5212099;28;20021;-71
2022/06/18 08:33:41;;;;;;;12.23;3.72;;;;;;;31.13;71.67;101681.34;5222516;28;20033;-70
2022/06/18 08:36:15;;;;;;;13.25;3.97;;;;;;;31.60;69.92;101690.25;5223654;28;20032;-70
2022/06/18 08:38:49;;;;;;;12.10;4.50;;;;;;;31.70;70.11;101685.44;5207636;28;20029;-71
2022/06/18 08:41:34;;;;;;;11.95;4.53;;;;;;;31.78;69.54;101683.16;5212720;28;20501;-71
2022/06/18 08:44:20;;;;;;;11.27;4.13;;;;;;;31.75;67.50;101678.22;5219762;28;20033;-71
2022/06/18 08:47:26;;;;;;;16.15;3.90;;;;;;;32.08;68.80;101679.34;5216421;28;20025;-71
2022/06/18 08:50:16;;;;;;;16.52;4.50;;;;;;;31.84;66.91;101665.41;5227488;28;20028;-71
2022/06/18 08:53:19;;;;;;;9.73;4.18;;;;;;;32.32;64.69;101660.81;5210825;28;20573;-71
2022/06/18 08:56:01;;;;;;;14.45;4.07;;;;;;;32.07;68.18;101664.66;5206685;28;20032;-71
2022/06/18 08:58:55;;;;;;;14.90;4.15;;;;;;;32.26;68.40;101656.44;5217704;28;20478;-71
2022/06/18 09:01:47;;;;;;;18.70;4.68;;;;;;;32.63;68.23;101660.50;5215439;28;20386;-71
2022/06/18 09:04:19;;;;;;;13.45;4.22;;;;;;;32.68;70.02;101664.06;5213883;28;20505;-71
2022/06/18 09:07:09;;;;;;;12.85;4.38;;;;;;;32.25;64.11;101659.50;5215400;28;20079;-71
2022/06/18 09:10:04;;;;;;;13.38;4.40;;;;;;;32.73;63.57;101655.69;5206926;28;20053;-71
2022/06/18 09:12:44;;;;;;;11.73;3.80;;;;;;;32.80;65.36;101658.09;5212529;28;20101;-71
2022/06/18 09:15:21;;;;;;;14.15;4.40;;;;;;;32.53;64.27;101660.63;5225906;28;20056;-71
2022/06/18 09:18:01;;;;;;;13.23;4.65;;;;;;;32.86;65.57;101668.00;5206872;28;20364;-71
2022/06/18 09:20:37;;;;;;;18.90;5.10;;;;;;;33.05;58.86;101665.31;5219541;28;20033;-71
2022/06/18 09:23:15;;;;;;;16.33;3.85;;;;;;;33.15;63.24;101665.16;5206443;28;20037;-71
2022/06/18 09:25:49;;;;;;;12.45;4.03;;;;;;;33.50;58.24;101665.81;5206209;28;20037;-71
2022/06/18 09:28:39;;;;;;;14.88;4.43;;;;;;;33.37;59.32;101653.44;5208430;28;20033;-71
2022/06/18 09:31:16;;;;;;;14.88;3.83;;;;;;;33.54;57.88;101655.75;5226670;28;20032;-71
2022/06/18 09:33:53;;;;;;;15.20;4.22;;;;;;;33.43;62.09;101654.22;5226892;28;20021;-71
2022/06/18 09:36:31;;;;;;;13.45;4.20;;;;;;;33.69;57.54;101649.94;5226651;28;20033;-71
2022/06/18 09:39:08;;;;;;;11.52;3.90;;;;;;;33.90;56.38;101642.09;5217597;28;20024;-71
2022/06/18 09:41:47;;;;;;;15.93;5.13;;;;;;;33.70;56.24;101643.25;5208376;28;20053;-71
2022/06/18 09:44:37;;;;;;;15.02;4.25;;;;;;;33.89;55.71;101643.22;5204641;28;20104;-71
2022/06/18 09:47:29;;;;;;;18.63;4.72;;;;;;;33.55;57.27;101649.06;5215036;28;20487;-71
2022/06/18 09:50:01;;;;;;;15.15;4.30;;;;;;;33.95;54.88;101641.19;5205178;28;20509;-71
2022/06/18 09:52:35;;;;;;;12.73;4.38;;;;;;;34.33;51.66;101638.28;5206137;28;20494;-72
2022/06/18 09:55:14;;;;;;;13.63;3.83;;;;;;;33.91;53.74;101638.16;5217188;28;20047;-71
2022/06/18 09:57:51;;;;;;;17.40;4.15;;;;;;;33.84;54.53;101646.09;5206021;28;20056;-71
2022/06/18 10:00:28;;;;;;;20.45;4.55;;;;;;;33.92;54.41;101641.75;5205886;28;20025;-71
2022/06/18 10:06:52;;;;;;;14.25;4.20;;;;;;;34.01;59.89;101643.59;5205794;28;20033;-71
2022/06/18 10:09:01;;;;;;;25.85;4.25;;;;;;;34.42;54.64;101640.03;5219061;28;20108;-71
2022/06/18 10:11:32;;;;;;;12.13;3.92;;;;;;;34.97;51.81;101637.28;5217287;28;20375;-71
2022/06/18 10:14:11;;;;;;;10.88;3.80;;;;;;;34.65;51.64;101638.22;5225229;28;20023;-71
2022/06/18 10:16:58;;;;;;;13.85;4.07;;;;;;;34.53;55.89;101640.69;5211249;28;20033;-71
2022/06/18 10:20:04;;;;;;;11.43;3.80;;;;;;;34.66;51.52;101639.06;5226306;28;20095;-71
2022/06/18 10:23:09;;;;;;;19.00;4.25;;;;;;;34.04;54.17;101633.81;5226028;28;20032;-71
2022/06/18 10:25:43;;;;;;;;;;;;;;;34.39;52.95;101623.09;5205515;28;20033;-72
2022/06/18 10:28:36;;;;;;;14.25;4.43;;;;;;;34.58;51.88;101621.09;5218456;28;19962;-71
2022/06/18 10:31:19;;;;;;;13.38;4.20;;;;;;;34.55;52.03;101623.69;5205047;28;20025;-72
2022/06/18 10:34:13;;;;;;;14.57;4.35;;;;;;;34.28;52.98;101611.34;5205258;28;20028;-72
2022/06/18 10:37:08;;;;;;;19.05;4.43;;;;;;;34.45;51.41;101611.59;5218580;28;20429;-72
2022/06/18 10:39:57;;;;;;;;;;;;;;;34.10;50.88;101606.69;5215331;28;20378;-71
2022/06/18 10:42:43;;;;;;;15.55;4.25;;;;;;;33.83;53.96;101599.88;5216490;28;19973;-71
2022/06/18 10:45:13;;;;;;;12.65;4.53;;;;;;;33.89;52.64;101597.84;5217420;28;20083;-71
2022/06/18 10:47:48;;;;;;;9.13;4.10;;;;;;;34.10;53.24;101598.34;5217072;28;20526;-71
2022/06/18 10:50:21;;;;;;;15.07;4.13;;;;;;;34.27;52.27;101591.03;5204798;28;20029;-71
2022/06/18 10:53:11;;;;;;;13.23;4.18;;;;;;;34.64;49.66;101575.28;5222290;28;20075;-72
2022/06/18 10:55:43;;;;;;;17.60;4.43;;;;;;;34.82;51.13;101575.47;5225200;28;20060;-71
2022/06/18 10:58:15;;;;;;;10.73;3.83;;;;;;;34.81;50.21;101580.22;5217513;28;20451;-71
2022/06/18 11:00:58;;;;;;;20.52;4.40;;;;;;;34.50;51.49;101569.72;5217694;28;20242;-71
2022/06/18 11:03:31;;;;;;;16.23;4.45;;;;;;;34.59;51.03;101569.81;5204578;28;20043;-71
2022/06/18 11:06:10;;;;;;;12.73;4.63;;;;;;;34.71;49.87;101567.31;5218121;28;20105;-71
2022/06/18 11:08:50;;;;;;;10.32;3.97;;;;;;;34.62;47.90;101560.81;5205114;28;20025;-72
2022/06/18 11:11:25;;;;;;;18.40;4.65;;;;;;;34.56;47.81;101552.91;5225133;28;20029;-71
2022/06/18 11:14:14;;;;;;;10.07;4.00;;;;;;;34.62;49.39;101549.69;5225157;28;20025;-71
2022/06/18 11:16:46;;;;;;;14.32;4.03;;;;;;;34.76;51.95;101542.13;5211657;28;20368;-72
2022/06/18 11:19:27;;;;;;;15.52;4.20;;;;;;;34.83;50.45;101538.06;5224774;28;20021;-71
2022/06/18 11:22:26;;;;;;;14.98;4.28;;;;;;;34.89;51.16;101536.81;5223977;28;20437;-72
2022/06/18 11:25:00;;;;;;;17.75;4.38;;;;;;;34.63;51.47;101534.59;5222870;28;20017;-72
2022/06/18 11:27:35;;;;;;;15.10;4.20;;;;;;;34.69;49.37;101530.59;5202014;28;20028;-72
2022/06/18 11:30:17;;;;;;;15.35;4.03;;;;;;;34.98;48.97;101524.63;5206361;28;20275;-72
2022/06/18 11:32:49;;;;;;;12.98;4.43;;;;;;;34.79;53.34;101521.16;5223782;28;20021;-72
2022/06/18 11:35:39;;;;;;;18.63;4.47;;;;;;;34.75;49.26;101518.19;5217130;28;20021;-71
2022/06/18 11:38:28;;;;;;;12.73;4.00;;;;;;;35.42;50.24;101523.00;5216582;28;20395;-71
2022/06/18 11:41:21;;;;;;;15.27;4.05;;;;;;;35.73;46.60;101516.66;5203763;28;20086;-72
2022/06/18 11:43:56;;;;;;;13.55;4.63;;;;;;;35.47;48.75;101508.97;5213710;28;20025;-71
2022/06/18 11:46:36;;;;;;;14.70;4.28;;;;;;;35.14;50.36;101508.38;5210664;28;20475;-72
2022/06/18 11:49:13;;;;;;;14.68;4.72;;;;;;;35.23;50.42;101514.84;5209572;28;20056;-72
2022/06/18 11:52:08;;;;;;;8.32;3.70;;;;;;;35.53;48.30;101504.91;5224397;28;20021;-72
2022/06/18 11:55:01;;;;;;;9.45;3.28;;;;;;;35.62;47.27;101501.34;5209039;28;20051;-72
2022/06/18 11:57:41;;;;;;;12.32;4.22;;;;;;;35.77;50.62;101503.72;5221514;28;20036;-72
2022/06/18 12:00:33;;;;;;;10.13;4.03;;;;;;;35.86;48.23;101489.81;5202684;28;20040;-72
2022/06/18 12:03:19;;;;;;;9.45;4.18;;;;;;;36.05;48.96;101496.00;5211176;28;20386;-72
2022/06/18 12:06:13;;;;;;;10.68;4.15;;;;;;;36.01;51.26;101486.63;5223617;28;20390;-72
2022/06/18 12:08:44;;;;;;;8.25;3.50;;;;;;;35.95;50.88;101485.94;5222911;28;20035;-72